Massena, New York
Current Conditions -  °F | °C
As of 2:53 PM on Saturday 20 Dec 2014 (Local Time) from KMSS Reporting Station
Clear Clear  
Wind Chill: 16°   Ceiling: Unl
Heat Index: 22°   Visibility: 10mi
Dew Point: 15°   Wind: 5mph
Humidity: 75%   Direction: 40°NE
Pressure: 30.33"   Gusts: NA
Location:  44.93°N, 74.89°W
Report Text: KMSS 201953Z AUTO 04004KT 10SM CLR M06/M09 A3033 RMK AO2 SLP278 T10561094
Loading
Personal Weather Stations






























Interactive Weather Map New forecast layout! Learn more

10-Day Weather Forecast

Advertisements
Track Severe Weather on mobile